createdAt,value
2022-09-15T00:00:37.219Z,13.63
2022-09-15T00:03:09.234Z,13.61
2022-09-15T00:05:41.272Z,13.59
2022-09-15T00:08:13.803Z,13.60
2022-09-15T00:10:58.498Z,13.58
2022-09-15T00:13:30.377Z,13.58
2022-09-15T00:16:02.310Z,13.59
2022-09-15T00:18:35.516Z,13.60
2022-09-15T00:21:13.131Z,13.61
2022-09-15T00:23:45.751Z,13.63
2022-09-15T00:26:20.610Z,13.63
2022-09-15T00:28:53.250Z,13.63
2022-09-15T00:31:27.097Z,13.66
2022-09-15T00:34:02.297Z,13.66
2022-09-15T00:36:34.122Z,13.68
2022-09-15T00:39:06.803Z,13.68
2022-09-15T00:41:41.061Z,13.68
2022-09-15T00:44:22.012Z,13.69
2022-09-15T00:47:15.673Z,13.72
2022-09-15T00:49:34.049Z,13.70
2022-09-15T00:52:08.910Z,13.72
2022-09-15T00:54:49.469Z,13.73
2022-09-15T00:57:30.704Z,13.75
2022-09-15T01:00:05.062Z,13.75
2022-09-15T01:02:38.515Z,13.77
2022-09-15T01:05:13.119Z,13.78
2022-09-15T01:07:48.720Z,13.78
2022-09-15T01:10:26.077Z,13.99
2022-09-15T01:13:01.397Z,13.82
2022-09-15T01:15:55.604Z,13.80
2022-09-15T01:18:48.428Z,13.80
2022-09-15T01:21:41.464Z,13.80
2022-09-15T01:24:16.687Z,13.80
2022-09-15T01:27:30.601Z,13.80
2022-09-15T01:29:55.258Z,13.81
2022-09-15T01:32:47.710Z,13.83
2022-09-15T01:35:25.660Z,13.82
2022-09-15T01:38:03.500Z,13.83
2022-09-15T01:40:38.526Z,13.84
2022-09-15T01:43:12.412Z,13.84
2022-09-15T01:45:47.588Z,13.84
2022-09-15T01:48:22.424Z,13.84
2022-09-15T01:50:57.564Z,13.84
2022-09-15T01:53:30.115Z,13.84
2022-09-15T01:56:11.087Z,13.85
2022-09-15T01:58:43.210Z,13.85
2022-09-15T02:01:31.813Z,13.84
2022-09-15T02:04:10.027Z,13.86
2022-09-15T02:07:02.986Z,13.87
2022-09-15T02:09:37.782Z,13.86
2022-09-15T02:12:25.441Z,13.88
2022-09-15T02:15:02.028Z,13.87
2022-09-15T02:17:38.321Z,13.88
2022-09-15T02:20:29.683Z,13.88
2022-09-15T02:23:05.700Z,13.88
2022-09-15T02:25:43.679Z,13.88
2022-09-15T02:28:18.345Z,13.89
2022-09-15T02:30:50.071Z,13.87
2022-09-15T02:33:24.308Z,14.08
2022-09-15T02:35:56.898Z,13.87
2022-09-15T02:38:31.799Z,13.85
2022-09-15T02:41:05.276Z,13.84
2022-09-15T02:43:40.173Z,13.84
2022-09-15T02:46:12.368Z,13.82
2022-09-15T02:48:44.421Z,13.82
2022-09-15T02:51:18.036Z,13.84
2022-09-15T02:53:50.845Z,13.83
2022-09-15T02:56:22.860Z,13.85
2022-09-15T02:58:54.921Z,13.83
2022-09-15T03:01:34.109Z,13.84
2022-09-15T03:04:06.289Z,13.83
2022-09-15T03:06:38.303Z,13.84
2022-09-15T03:09:10.888Z,13.85
2022-09-15T03:11:43.002Z,13.82
2022-09-15T03:14:15.054Z,13.82
2022-09-15T03:16:47.679Z,13.83
2022-09-15T03:19:19.560Z,13.84
2022-09-15T03:21:52.142Z,13.83
2022-09-15T03:24:24.147Z,13.72
2022-09-15T03:26:56.198Z,13.84
2022-09-15T03:29:28.101Z,13.85
2022-09-15T03:31:59.974Z,13.85
2022-09-15T03:34:32.072Z,13.87
2022-09-15T03:37:04.155Z,13.88
2022-09-15T03:39:36.038Z,13.91
2022-09-15T03:42:10.021Z,13.94
2022-09-15T03:44:42.416Z,13.94
2022-09-15T03:47:14.386Z,13.95
2022-09-15T03:49:46.564Z,13.86
2022-09-15T03:52:18.878Z,13.86
2022-09-15T03:54:50.918Z,14.01
2022-09-15T03:57:22.892Z,14.01
2022-09-15T03:59:55.030Z,14.03
2022-09-15T04:02:27.348Z,14.03
2022-09-15T04:04:59.964Z,14.00
2022-09-15T04:07:33.255Z,14.00
2022-09-15T04:10:05.565Z,13.98
2022-09-15T04:12:38.155Z,13.97
2022-09-15T04:15:10.961Z,13.96
2022-09-15T04:17:42.974Z,13.97
2022-09-15T04:20:16.150Z,13.86
2022-09-15T04:22:48.584Z,13.86
2022-09-15T04:25:20.561Z,14.01
2022-09-15T04:27:53.021Z,14.00
2022-09-15T04:30:24.881Z,14.01
2022-09-15T04:32:56.896Z,14.03
2022-09-15T04:35:28.972Z,14.05
2022-09-15T04:38:00.942Z,14.05
2022-09-15T04:40:33.871Z,14.06
2022-09-15T04:43:06.861Z,14.08
2022-09-15T04:45:39.024Z,14.09
2022-09-15T04:48:11.698Z,14.11
2022-09-15T04:50:43.664Z,14.12
2022-09-15T04:53:16.155Z,14.13
2022-09-15T04:55:48.395Z,14.13
2022-09-15T04:58:20.758Z,14.18
2022-09-15T05:00:52.858Z,14.21
2022-09-15T05:03:25.002Z,14.21
2022-09-15T05:05:56.881Z,14.21
2022-09-15T05:08:30.594Z,14.17
2022-09-15T05:11:05.182Z,14.37
2022-09-15T05:13:38.651Z,14.32
2022-09-15T05:16:13.527Z,14.45
2022-09-15T05:18:47.064Z,14.49
2022-09-15T05:21:21.506Z,14.54
2022-09-15T05:23:54.703Z,14.56
2022-09-15T05:26:29.848Z,14.52
2022-09-15T05:29:02.001Z,14.54
2022-09-15T05:31:35.150Z,14.49
2022-09-15T05:34:07.604Z,14.57
2022-09-15T05:36:39.680Z,14.52
2022-09-15T05:39:11.737Z,14.69
2022-09-15T05:41:43.702Z,14.69
2022-09-15T05:44:15.638Z,14.71
2022-09-15T05:46:47.980Z,14.70
2022-09-15T05:49:20.522Z,14.67
2022-09-15T05:51:52.579Z,14.68
2022-09-15T05:54:24.676Z,14.69
2022-09-15T05:56:56.819Z,14.69
2022-09-15T05:59:28.904Z,14.68
2022-09-15T06:02:01.126Z,14.44
2022-09-15T06:04:34.325Z,14.55
2022-09-15T06:07:06.241Z,14.51
2022-09-15T06:09:39.510Z,14.49
2022-09-15T06:12:11.711Z,14.34
2022-09-15T06:14:44.940Z,14.32
2022-09-15T06:17:19.183Z,14.32
2022-09-15T06:19:51.468Z,14.42
2022-09-15T06:22:23.503Z,14.46
2022-09-15T06:24:55.654Z,14.46
2022-09-15T06:27:28.213Z,14.47
2022-09-15T06:30:00.415Z,14.51
2022-09-15T06:32:34.148Z,14.50
2022-09-15T06:35:07.380Z,14.40
2022-09-15T06:37:40.081Z,14.51
2022-09-15T06:40:12.523Z,14.55
2022-09-15T06:42:44.637Z,14.55
2022-09-15T06:45:17.090Z,14.44
2022-09-15T06:48:02.214Z,14.60
2022-09-15T06:50:23.400Z,14.60
2022-09-15T06:52:55.593Z,14.64
2022-09-15T06:55:28.475Z,14.64
2022-09-15T06:58:00.536Z,14.63
2022-09-15T07:00:32.885Z,14.70
2022-09-15T07:03:04.930Z,14.78
2022-09-15T07:05:37.045Z,14.84
2022-09-15T07:08:09.111Z,14.84
2022-09-15T07:10:42.684Z,14.91
2022-09-15T07:13:14.915Z,14.91
2022-09-15T07:15:58.946Z,14.92
2022-09-15T07:18:32.058Z,14.86
2022-09-15T07:21:07.526Z,14.86
2022-09-15T07:23:40.085Z,14.87
2022-09-15T07:26:29.430Z,14.81
2022-09-15T07:29:04.321Z,14.81
2022-09-15T07:31:38.908Z,14.87
2022-09-15T07:34:11.258Z,15.01
2022-09-15T07:36:43.322Z,15.11
2022-09-15T07:39:15.568Z,15.30
2022-09-15T07:41:48.041Z,15.30
2022-09-15T07:44:19.984Z,15.57
2022-09-15T07:46:52.264Z,15.66
2022-09-15T07:49:24.596Z,15.72
2022-09-15T07:51:56.780Z,15.78
2022-09-15T07:54:28.830Z,15.78
2022-09-15T07:57:00.891Z,15.78
2022-09-15T07:59:33.404Z,15.72
2022-09-15T08:02:05.458Z,15.83
2022-09-15T08:04:37.479Z,15.92
2022-09-15T08:07:09.350Z,16.01
2022-09-15T08:09:42.441Z,16.14
2022-09-15T08:12:14.317Z,16.30
2022-09-15T08:14:46.567Z,16.45
2022-09-15T08:17:18.706Z,16.70
2022-09-15T08:19:51.118Z,16.88
2022-09-15T08:22:23.133Z,17.08
2022-09-15T08:24:55.442Z,17.19
2022-09-15T08:27:27.373Z,17.27
2022-09-15T08:29:59.351Z,17.34
2022-09-15T08:32:33.297Z,17.45
2022-09-15T08:35:05.466Z,17.62
2022-09-15T08:37:37.429Z,17.70
2022-09-15T08:40:12.825Z,17.78
2022-09-15T08:42:46.170Z,17.81
2022-09-15T08:45:30.060Z,17.82
2022-09-15T08:48:04.531Z,17.78
2022-09-15T08:50:40.287Z,17.80
2022-09-15T08:53:27.641Z,18.18
2022-09-15T08:56:06.248Z,18.33
2022-09-15T08:58:38.887Z,18.15
2022-09-15T09:01:48.709Z,18.07
2022-09-15T09:04:29.601Z,17.97
2022-09-15T09:07:27.140Z,17.71
2022-09-15T09:10:25.924Z,17.48
2022-09-15T09:13:17.271Z,17.39
2022-09-15T09:16:07.159Z,17.36
2022-09-15T09:19:13.633Z,17.29
2022-09-15T09:21:51.921Z,17.30
2022-09-15T09:24:29.910Z,17.33
2022-09-15T09:27:01.992Z,17.35
2022-09-15T09:29:39.876Z,17.30
2022-09-15T09:32:25.075Z,17.18
2022-09-15T09:35:06.024Z,16.95
2022-09-15T09:37:38.386Z,16.66
2022-09-15T09:40:16.147Z,16.43
2022-09-15T09:42:48.274Z,16.32
2022-09-15T09:45:21.176Z,16.19
2022-09-15T09:47:57.228Z,16.12
2022-09-15T09:50:36.594Z,16.10
2022-09-15T09:53:33.836Z,16.13
2022-09-15T09:56:20.878Z,16.19
2022-09-15T09:58:54.339Z,16.26
2022-09-15T10:01:27.868Z,16.26
2022-09-15T10:04:15.066Z,16.25
2022-09-15T10:06:47.355Z,16.21
2022-09-15T10:09:20.685Z,16.28
2022-09-15T10:12:01.824Z,16.26
2022-09-15T10:14:36.857Z,16.25
2022-09-15T10:17:17.768Z,16.33
2022-09-15T10:19:55.512Z,16.45
2022-09-15T10:22:36.767Z,16.53
2022-09-15T10:25:39.483Z,16.62
2022-09-15T10:28:11.790Z,16.66
2022-09-15T10:31:15.035Z,16.68
2022-09-15T10:33:48.047Z,16.70
2022-09-15T10:36:31.934Z,16.69
2022-09-15T10:39:13.016Z,16.64
2022-09-15T10:41:51.340Z,16.56
2022-09-15T10:44:35.078Z,16.57
2022-09-15T10:47:19.179Z,16.67
2022-09-15T10:50:12.227Z,16.90
2022-09-15T10:52:55.930Z,17.16
2022-09-15T10:55:51.673Z,17.42
2022-09-15T10:58:45.148Z,17.67
2022-09-15T11:01:37.722Z,17.83
2022-09-15T11:04:21.811Z,17.80
2022-09-15T11:07:20.983Z,17.61
2022-09-15T11:09:58.849Z,17.38
2022-09-15T11:12:46.611Z,17.18
2022-09-15T11:15:24.516Z,17.03
2022-09-15T11:18:32.625Z,16.80
2022-09-15T11:21:28.890Z,16.55
2022-09-15T11:24:31.384Z,16.37
2022-09-15T11:27:30.540Z,16.17
2022-09-15T11:30:08.858Z,16.05
2022-09-15T11:32:44.945Z,15.87
2022-09-15T11:35:39.106Z,15.82
2022-09-15T11:38:42.929Z,15.73
2022-09-15T11:41:18.134Z,15.69
2022-09-15T11:43:56.542Z,15.62
2022-09-15T11:46:34.675Z,15.57
2022-09-15T11:49:18.914Z,15.46
2022-09-15T11:52:18.898Z,15.46
2022-09-15T11:55:03.061Z,15.41
2022-09-15T11:57:43.844Z,15.39
2022-09-15T12:00:17.211Z,15.39
2022-09-15T12:03:11.343Z,15.43
2022-09-15T12:06:02.788Z,15.51
2022-09-15T12:08:40.270Z,15.57
2022-09-15T12:11:17.907Z,15.77
2022-09-15T12:13:50.765Z,15.77
2022-09-15T12:16:24.184Z,15.98
2022-09-15T12:19:14.593Z,16.30
2022-09-15T12:22:01.417Z,16.49
2022-09-15T12:24:46.161Z,16.64
2022-09-15T12:27:20.849Z,16.68
2022-09-15T12:29:55.265Z,16.63
2022-09-15T12:32:33.816Z,16.53
2022-09-15T12:35:18.038Z,16.45
2022-09-15T12:37:54.938Z,16.38
2022-09-15T12:40:36.255Z,16.46
2022-09-15T12:43:20.146Z,16.56
2022-09-15T12:45:58.562Z,16.65
2022-09-15T12:48:33.613Z,16.68
2022-09-15T12:51:10.150Z,16.70
2022-09-15T12:53:58.310Z,16.68
2022-09-15T12:56:33.868Z,16.77
2022-09-15T12:59:08.210Z,16.89
2022-09-15T13:01:51.814Z,17.05
2022-09-15T13:04:44.781Z,17.22
2022-09-15T13:07:19.826Z,17.34
2022-09-15T13:10:17.227Z,17.51
2022-09-15T13:12:55.645Z,17.57
2022-09-15T13:15:30.157Z,17.62
2022-09-15T13:18:05.118Z,17.62
2022-09-15T13:20:40.494Z,17.66
2022-09-15T13:23:15.379Z,17.80
2022-09-15T13:25:49.319Z,17.96
2022-09-15T13:28:22.718Z,18.09
2022-09-15T13:31:04.134Z,18.12
2022-09-15T13:39:34.869Z,17.74
2022-09-15T13:42:25.101Z,17.55
2022-09-15T13:45:15.428Z,17.39
2022-09-15T13:47:50.738Z,17.25
2022-09-15T13:50:37.685Z,17.17
2022-09-15T13:53:15.620Z,17.12
2022-09-15T13:55:48.632Z,17.06
2022-09-15T14:01:06.950Z,16.97
2022-09-15T14:03:42.043Z,16.95
2022-09-15T14:06:23.557Z,17.21
2022-09-15T14:08:58.730Z,17.58
2022-09-15T14:11:33.894Z,17.60
2022-09-15T14:14:09.309Z,17.57
2022-09-15T14:16:42.795Z,17.46
2022-09-15T14:19:37.293Z,17.45
2022-09-15T14:22:25.603Z,17.42
2022-09-15T14:24:59.419Z,17.40
2022-09-15T14:27:35.868Z,17.29
2022-09-15T14:30:10.534Z,17.19
2022-09-15T14:32:46.260Z,17.05
2022-09-15T14:35:21.848Z,16.91
2022-09-15T14:38:01.081Z,16.78
2022-09-15T14:40:39.489Z,16.62
2022-09-15T14:43:29.543Z,16.49
2022-09-15T14:46:18.038Z,16.37
2022-09-15T14:48:50.677Z,16.26
2022-09-15T14:51:32.061Z,16.16
2022-09-15T14:54:06.740Z,16.09
2022-09-15T14:56:39.306Z,16.06
2022-09-15T14:59:19.829Z,16.24
2022-09-15T15:02:03.752Z,16.05
2022-09-15T15:04:39.321Z,16.04
2022-09-15T15:07:22.949Z,16.02
2022-09-15T15:10:01.114Z,15.98
2022-09-15T15:12:40.384Z,15.95
2022-09-15T15:15:17.211Z,15.92
2022-09-15T15:17:58.652Z,15.88
2022-09-15T15:20:33.512Z,15.86
2022-09-15T15:23:17.675Z,15.84
2022-09-15T15:25:50.571Z,15.86
2022-09-15T15:28:34.637Z,15.88
2022-09-15T15:31:22.067Z,15.87
2022-09-15T15:34:03.565Z,15.90
2022-09-15T15:36:37.184Z,15.90
2022-09-15T15:39:11.179Z,15.88
2022-09-15T15:41:44.929Z,15.88
2022-09-15T15:44:19.951Z,15.85
2022-09-15T15:46:55.885Z,15.77
2022-09-15T15:49:30.576Z,15.69
2022-09-15T15:52:03.955Z,15.56
2022-09-15T15:54:36.292Z,15.43
2022-09-15T15:57:30.435Z,15.32
2022-09-15T16:00:03.237Z,15.18
2022-09-15T16:02:35.283Z,14.98
2022-09-15T16:05:07.781Z,14.81
2022-09-15T16:07:40.739Z,14.63
2022-09-15T16:10:16.247Z,14.47
2022-09-15T16:12:48.424Z,14.32
2022-09-15T16:15:22.361Z,14.17
2022-09-15T16:17:54.584Z,14.04
2022-09-15T16:20:28.350Z,13.96
2022-09-15T16:23:01.790Z,13.84
2022-09-15T16:25:37.212Z,13.74
2022-09-15T16:28:10.167Z,13.73
2022-09-15T16:30:42.639Z,13.62
2022-09-15T16:33:16.861Z,13.34
2022-09-15T16:35:56.403Z,13.34
2022-09-15T16:38:28.559Z,13.52
2022-09-15T16:41:01.503Z,13.31
2022-09-15T16:43:33.468Z,13.27
2022-09-15T16:46:07.800Z,13.14
2022-09-15T16:48:41.327Z,13.01
2022-09-15T16:51:25.207Z,12.86
2022-09-15T16:53:54.434Z,12.81
2022-09-15T16:56:27.109Z,12.69
2022-09-15T16:59:00.864Z,12.69
2022-09-15T17:01:33.708Z,12.71
2022-09-15T17:04:12.784Z,12.65
2022-09-15T17:06:48.366Z,12.55
2022-09-15T17:09:20.873Z,12.47
2022-09-15T17:11:54.991Z,12.41
2022-09-15T17:14:27.655Z,12.40
2022-09-15T17:16:59.843Z,12.46
2022-09-15T17:19:32.577Z,12.47
2022-09-15T17:22:04.929Z,12.44
2022-09-15T17:24:37.488Z,12.39
2022-09-15T17:27:09.852Z,12.35
2022-09-15T17:29:42.578Z,12.34
2022-09-15T17:32:14.696Z,12.28
2022-09-15T17:34:47.522Z,12.23
2022-09-15T17:37:20.927Z,12.18
2022-09-15T17:39:58.800Z,12.17
2022-09-15T17:42:28.545Z,12.14
2022-09-15T17:45:01.867Z,12.10
2022-09-15T17:47:34.322Z,12.06
2022-09-15T17:50:06.910Z,12.02
2022-09-15T17:52:40.698Z,11.96
2022-09-15T17:55:21.533Z,11.93
2022-09-15T17:57:53.884Z,11.92
2022-09-15T18:00:28.956Z,11.90
2022-09-15T18:03:03.590Z,11.86
2022-09-15T18:05:39.727Z,11.81
2022-09-15T18:08:12.425Z,11.79
2022-09-15T18:10:46.761Z,11.78
2022-09-15T18:13:21.644Z,11.80
2022-09-15T18:15:54.808Z,11.81
2022-09-15T18:18:29.018Z,11.82
2022-09-15T18:21:04.308Z,11.81
2022-09-15T18:23:37.536Z,11.74
2022-09-15T18:26:09.687Z,11.69
2022-09-15T18:28:42.091Z,11.67
2022-09-15T18:31:17.700Z,11.63
2022-09-15T18:33:51.105Z,11.64
2022-09-15T18:36:23.337Z,11.65
2022-09-15T18:38:55.442Z,11.74
2022-09-15T18:41:28.575Z,11.76
2022-09-15T18:44:00.637Z,11.77
2022-09-15T18:46:34.113Z,11.77
2022-09-15T18:49:08.919Z,11.79
2022-09-15T18:51:57.550Z,11.81
2022-09-15T18:54:16.035Z,11.81
2022-09-15T18:56:48.867Z,11.80
2022-09-15T18:59:21.416Z,11.76
2022-09-15T19:01:53.473Z,11.72
2022-09-15T19:04:31.065Z,11.72
2022-09-15T19:06:59.317Z,11.68
2022-09-15T19:09:31.674Z,11.70
2022-09-15T19:12:04.857Z,11.67
2022-09-15T19:14:37.117Z,11.71
2022-09-15T19:17:10.467Z,11.70
2022-09-15T19:19:43.058Z,11.69
2022-09-15T19:22:15.128Z,11.67
2022-09-15T19:24:47.309Z,11.65
2022-09-15T19:27:19.560Z,11.59
2022-09-15T19:29:52.342Z,11.56
2022-09-15T19:32:24.455Z,11.54
2022-09-15T19:34:56.499Z,11.52
2022-09-15T19:37:28.627Z,11.58
2022-09-15T19:40:01.213Z,11.59
2022-09-15T19:42:33.631Z,11.57
2022-09-15T19:45:06.566Z,11.60
2022-09-15T19:47:40.068Z,11.58
2022-09-15T19:50:12.640Z,11.59
2022-09-15T19:52:44.722Z,11.61
2022-09-15T19:55:18.248Z,11.57
2022-09-15T19:57:50.120Z,11.55
2022-09-15T20:00:22.044Z,11.55
2022-09-15T20:02:54.225Z,11.51
2022-09-15T20:05:26.366Z,11.47
2022-09-15T20:07:59.816Z,11.43
2022-09-15T20:10:31.719Z,11.39
2022-09-15T20:13:03.735Z,11.37
2022-09-15T20:15:36.056Z,11.38
2022-09-15T20:18:09.826Z,11.36
2022-09-15T20:20:41.960Z,11.35
2022-09-15T20:23:15.328Z,11.35
2022-09-15T20:26:01.359Z,11.35
2022-09-15T20:28:33.894Z,11.34
2022-09-15T20:31:11.643Z,11.36
2022-09-15T20:33:45.841Z,11.33
2022-09-15T20:36:21.683Z,11.30
2022-09-15T20:38:54.799Z,11.28
2022-09-15T20:41:28.590Z,11.25
2022-09-15T20:44:01.054Z,11.21
2022-09-15T20:46:33.644Z,11.15
2022-09-15T20:49:06.127Z,11.10
2022-09-15T20:51:38.049Z,11.07
2022-09-15T20:54:11.502Z,11.04
2022-09-15T20:56:43.492Z,11.00
2022-09-15T20:59:15.556Z,10.99
2022-09-15T21:01:47.601Z,10.99
2022-09-15T21:04:20.729Z,11.03
2022-09-15T21:06:52.807Z,11.04
2022-09-15T21:09:25.000Z,11.05
2022-09-15T21:11:57.120Z,11.08
2022-09-15T21:14:29.363Z,11.12
2022-09-15T21:17:01.418Z,11.11
2022-09-15T21:19:33.495Z,11.13
2022-09-15T21:22:05.451Z,11.13
2022-09-15T21:24:37.259Z,11.10
2022-09-15T21:27:27.501Z,11.09
2022-09-15T21:29:59.557Z,11.08
2022-09-15T21:32:34.063Z,11.05
2022-09-15T21:35:07.543Z,11.03
2022-09-15T21:37:39.424Z,10.99
2022-09-15T21:40:13.116Z,10.97
2022-09-15T21:42:45.292Z,10.95
2022-09-15T21:45:17.270Z,10.96
2022-09-15T21:47:49.319Z,10.94
2022-09-15T21:50:21.267Z,10.91
2022-09-15T21:52:53.180Z,10.93
2022-09-15T21:55:25.832Z,10.94
2022-09-15T21:57:57.967Z,10.96
2022-09-15T22:00:30.247Z,10.98
2022-09-15T22:03:02.215Z,11.02
2022-09-15T22:05:34.718Z,11.03
2022-09-15T22:08:08.638Z,11.04
2022-09-15T22:10:42.136Z,11.04
2022-09-15T22:13:14.415Z,11.02
2022-09-15T22:15:46.326Z,11.03
2022-09-15T22:18:18.405Z,11.08
2022-09-15T22:20:51.930Z,11.08
2022-09-15T22:23:24.104Z,11.10
2022-09-15T22:25:56.148Z,11.10
2022-09-15T22:28:28.112Z,11.11
2022-09-15T22:31:01.499Z,11.10
2022-09-15T22:33:34.177Z,11.10
2022-09-15T22:36:06.343Z,11.10
2022-09-15T22:38:38.758Z,11.07
2022-09-15T22:41:13.427Z,11.06
2022-09-15T22:43:47.984Z,11.04
2022-09-15T22:46:21.124Z,11.02
2022-09-15T22:48:53.653Z,11.03
2022-09-15T22:51:26.017Z,11.02
2022-09-15T22:53:58.474Z,10.99
2022-09-15T22:56:30.644Z,10.98
2022-09-15T22:59:02.900Z,10.93
2022-09-15T23:01:34.900Z,10.89
2022-09-15T23:04:06.957Z,10.86
2022-09-15T23:06:38.935Z,10.84
2022-09-15T23:09:12.606Z,10.79
2022-09-15T23:11:44.570Z,10.76
2022-09-15T23:14:18.194Z,10.77
2022-09-15T23:16:50.178Z,10.75
2022-09-15T23:19:22.707Z,10.74
2022-09-15T23:21:54.548Z,10.71
2022-09-15T23:24:26.448Z,10.75
2022-09-15T23:26:58.543Z,10.74
2022-09-15T23:29:30.400Z,10.75
2022-09-15T23:32:02.234Z,10.71
2022-09-15T23:34:34.050Z,10.69
2022-09-15T23:37:06.090Z,10.68
2022-09-15T23:39:38.048Z,10.65
2022-09-15T23:42:10.098Z,10.67
2022-09-15T23:44:43.101Z,10.64
2022-09-15T23:47:14.939Z,10.65
2022-09-15T23:49:47.079Z,10.62
2022-09-15T23:52:19.089Z,10.57
2022-09-15T23:54:50.981Z,10.58
2022-09-15T23:57:22.957Z,10.56
2022-09-15T23:59:54.750Z,10.55
